sensor_id;sensor_type;location;lat;lon;timestamp;temperature;humidity
10123;DHT22;5101;49.038;8.710;2023-04-15T00:00:29;7.40;88.30
10123;DHT22;5101;49.038;8.710;2023-04-15T00:02:54;7.30;88.50
10123;DHT22;5101;49.038;8.710;2023-04-15T00:05:21;7.30;88.70
10123;DHT22;5101;49.038;8.710;2023-04-15T00:07:46;7.20;89.00
10123;DHT22;5101;49.038;8.710;2023-04-15T00:10:12;7.20;89.50
10123;DHT22;5101;49.038;8.710;2023-04-15T00:12:38;7.20;89.80
10123;DHT22;5101;49.038;8.710;2023-04-15T00:15:04;7.20;90.10
10123;DHT22;5101;49.038;8.710;2023-04-15T00:17:30;7.20;90.10
10123;DHT22;5101;49.038;8.710;2023-04-15T00:19:56;7.20;90.10
10123;DHT22;5101;49.038;8.710;2023-04-15T00:22:24;7.10;90.10
10123;DHT22;5101;49.038;8.710;2023-04-15T00:24:51;7.10;90.20
10123;DHT22;5101;49.038;8.710;2023-04-15T00:27:16;7.10;90.30
10123;DHT22;5101;49.038;8.710;2023-04-15T00:29:42;7.10;90.40
10123;DHT22;5101;49.038;8.710;2023-04-15T00:32:07;7.10;90.60
10123;DHT22;5101;49.038;8.710;2023-04-15T00:34:33;7.00;90.70
10123;DHT22;5101;49.038;8.710;2023-04-15T00:36:58;7.00;90.80
10123;DHT22;5101;49.038;8.710;2023-04-15T00:39:24;6.90;90.90
10123;DHT22;5101;49.038;8.710;2023-04-15T00:41:50;6.90;90.90
10123;DHT22;5101;49.038;8.710;2023-04-15T00:44:16;6.90;91.00
10123;DHT22;5101;49.038;8.710;2023-04-15T00:46:44;6.90;91.10
10123;DHT22;5101;49.038;8.710;2023-04-15T00:49:11;6.90;91.20
10123;DHT22;5101;49.038;8.710;2023-04-15T00:51:37;6.80;91.40
10123;DHT22;5101;49.038;8.710;2023-04-15T00:54:03;6.80;91.20
10123;DHT22;5101;49.038;8.710;2023-04-15T00:56:29;6.80;91.30
10123;DHT22;5101;49.038;8.710;2023-04-15T00:58:57;6.80;91.40
10123;DHT22;5101;49.038;8.710;2023-04-15T01:01:24;6.80;91.50
10123;DHT22;5101;49.038;8.710;2023-04-15T01:03:50;7.10;91.80
10123;DHT22;5101;49.038;8.710;2023-04-15T01:06:17;6.80;91.80
10123;DHT22;5101;49.038;8.710;2023-04-15T01:08:43;6.80;91.80
10123;DHT22;5101;49.038;8.710;2023-04-15T01:11:09;6.70;91.80
10123;DHT22;5101;49.038;8.710;2023-04-15T01:13:36;6.70;91.80
10123;DHT22;5101;49.038;8.710;2023-04-15T01:16:02;6.70;91.80
10123;DHT22;5101;49.038;8.710;2023-04-15T01:18:28;6.70;91.70
10123;DHT22;5101;49.038;8.710;2023-04-15T01:20:54;6.70;91.60
10123;DHT22;5101;49.038;8.710;2023-04-15T01:23:20;6.60;91.50
10123;DHT22;5101;49.038;8.710;2023-04-15T01:25:48;6.60;91.50
10123;DHT22;5101;49.038;8.710;2023-04-15T01:28:14;6.60;91.60
10123;DHT22;5101;49.038;8.710;2023-04-15T01:30:40;6.60;91.70
10123;DHT22;5101;49.038;8.710;2023-04-15T01:33:05;6.80;91.70
10123;DHT22;5101;49.038;8.710;2023-04-15T01:35:31;6.50;91.60
10123;DHT22;5101;49.038;8.710;2023-04-15T01:38:05;6.50;91.60
10123;DHT22;5101;49.038;8.710;2023-04-15T01:40:32;6.50;91.60
10123;DHT22;5101;49.038;8.710;2023-04-15T01:42:58;6.50;91.50
10123;DHT22;5101;49.038;8.710;2023-04-15T01:45:23;6.40;91.60
10123;DHT22;5101;49.038;8.710;2023-04-15T01:47:49;6.50;91.70
10123;DHT22;5101;49.038;8.710;2023-04-15T01:50:14;6.40;92.10
10123;DHT22;5101;49.038;8.710;2023-04-15T01:52:40;6.40;91.90
10123;DHT22;5101;49.038;8.710;2023-04-15T01:55:07;6.40;91.90
10123;DHT22;5101;49.038;8.710;2023-04-15T01:57:33;6.40;92.00
10123;DHT22;5101;49.038;8.710;2023-04-15T01:59:59;6.40;92.10
10123;DHT22;5101;49.038;8.710;2023-04-15T02:02:24;6.40;92.20
10123;DHT22;5101;49.038;8.710;2023-04-15T02:04:50;6.30;92.30
10123;DHT22;5101;49.038;8.710;2023-04-15T02:07:16;6.60;92.50
10123;DHT22;5101;49.038;8.710;2023-04-15T02:09:41;6.40;92.60
10123;DHT22;5101;49.038;8.710;2023-04-15T02:12:08;6.30;92.70
10123;DHT22;5101;49.038;8.710;2023-04-15T02:14:33;6.30;92.80
10123;DHT22;5101;49.038;8.710;2023-04-15T02:16:59;6.50;92.90
10123;DHT22;5101;49.038;8.710;2023-04-15T02:19:31;6.30;92.90
10123;DHT22;5101;49.038;8.710;2023-04-15T02:21:57;6.30;92.90
10123;DHT22;5101;49.038;8.710;2023-04-15T02:24:22;6.30;93.10
10123;DHT22;5101;49.038;8.710;2023-04-15T02:26:48;6.30;93.20
10123;DHT22;5101;49.038;8.710;2023-04-15T02:29:13;6.30;93.30
10123;DHT22;5101;49.038;8.710;2023-04-15T02:31:39;6.20;93.40
10123;DHT22;5101;49.038;8.710;2023-04-15T02:34:06;6.20;93.50
10123;DHT22;5101;49.038;8.710;2023-04-15T02:36:32;6.20;93.50
10123;DHT22;5101;49.038;8.710;2023-04-15T02:38:59;6.20;93.50
10123;DHT22;5101;49.038;8.710;2023-04-15T02:41:24;6.40;93.60
10123;DHT22;5101;49.038;8.710;2023-04-15T02:43:52;6.20;93.60
10123;DHT22;5101;49.038;8.710;2023-04-15T02:46:17;6.20;93.70
10123;DHT22;5101;49.038;8.710;2023-04-15T02:48:43;6.10;93.70
10123;DHT22;5101;49.038;8.710;2023-04-15T02:51:16;6.20;93.80
10123;DHT22;5101;49.038;8.710;2023-04-15T02:53:42;6.20;94.00
10123;DHT22;5101;49.038;8.710;2023-04-15T02:56:08;6.20;94.20
10123;DHT22;5101;49.038;8.710;2023-04-15T02:58:34;6.10;93.90
10123;DHT22;5101;49.038;8.710;2023-04-15T03:01:00;6.10;93.80
10123;DHT22;5101;49.038;8.710;2023-04-15T03:03:26;6.10;93.70
10123;DHT22;5101;49.038;8.710;2023-04-15T03:05:55;6.10;93.70
10123;DHT22;5101;49.038;8.710;2023-04-15T03:08:20;6.10;93.70
10123;DHT22;5101;49.038;8.710;2023-04-15T03:10:46;6.10;93.70
10123;DHT22;5101;49.038;8.710;2023-04-15T03:13:12;6.00;93.70
10123;DHT22;5101;49.038;8.710;2023-04-15T03:15:37;6.20;93.80
10123;DHT22;5101;49.038;8.710;2023-04-15T03:18:03;6.00;93.70
10123;DHT22;5101;49.038;8.710;2023-04-15T03:20:28;6.00;93.70
10123;DHT22;5101;49.038;8.710;2023-04-15T03:22:54;6.00;93.70
10123;DHT22;5101;49.038;8.710;2023-04-15T03:25:19;6.00;93.80
10123;DHT22;5101;49.038;8.710;2023-04-15T03:27:45;5.90;93.80
10123;DHT22;5101;49.038;8.710;2023-04-15T03:30:11;5.90;93.80
10123;DHT22;5101;49.038;8.710;2023-04-15T03:32:37;5.90;93.70
10123;DHT22;5101;49.038;8.710;2023-04-15T03:35:03;5.90;93.70
10123;DHT22;5101;49.038;8.710;2023-04-15T03:37:28;5.80;93.70
10123;DHT22;5101;49.038;8.710;2023-04-15T03:39:54;5.80;93.70
10123;DHT22;5101;49.038;8.710;2023-04-15T03:42:19;5.90;94.10
10123;DHT22;5101;49.038;8.710;2023-04-15T03:44:45;5.60;94.10
10123;DHT22;5101;49.038;8.710;2023-04-15T03:47:10;5.70;94.10
10123;DHT22;5101;49.038;8.710;2023-04-15T03:49:36;5.50;94.00
10123;DHT22;5101;49.038;8.710;2023-04-15T03:52:02;5.50;94.10
10123;DHT22;5101;49.038;8.710;2023-04-15T03:54:27;5.50;94.40
10123;DHT22;5101;49.038;8.710;2023-04-15T03:56:53;5.60;94.50
10123;DHT22;5101;49.038;8.710;2023-04-15T03:59:18;5.50;94.50
10123;DHT22;5101;49.038;8.710;2023-04-15T04:01:44;5.50;94.50
10123;DHT22;5101;49.038;8.710;2023-04-15T04:04:10;5.50;94.50
10123;DHT22;5101;49.038;8.710;2023-04-15T04:06:35;5.50;94.60
10123;DHT22;5101;49.038;8.710;2023-04-15T04:09:01;5.50;94.70
10123;DHT22;5101;49.038;8.710;2023-04-15T04:11:26;5.50;94.80
10123;DHT22;5101;49.038;8.710;2023-04-15T04:13:52;5.50;94.90
10123;DHT22;5101;49.038;8.710;2023-04-15T04:16:18;5.50;95.00
10123;DHT22;5101;49.038;8.710;2023-04-15T04:18:44;5.50;95.10
10123;DHT22;5101;49.038;8.710;2023-04-15T04:21:09;5.50;95.40
10123;DHT22;5101;49.038;8.710;2023-04-15T04:23:35;5.50;95.00
10123;DHT22;5101;49.038;8.710;2023-04-15T04:26:00;5.50;95.00
10123;DHT22;5101;49.038;8.710;2023-04-15T04:28:26;5.40;94.90
10123;DHT22;5101;49.038;8.710;2023-04-15T04:30:52;5.40;94.90
10123;DHT22;5101;49.038;8.710;2023-04-15T04:33:18;5.40;94.90
10123;DHT22;5101;49.038;8.710;2023-04-15T04:35:43;5.40;94.90
10123;DHT22;5101;49.038;8.710;2023-04-15T04:38:09;5.40;94.90
10123;DHT22;5101;49.038;8.710;2023-04-15T04:40:35;5.40;95.00
10123;DHT22;5101;49.038;8.710;2023-04-15T04:43:01;5.40;95.00
10123;DHT22;5101;49.038;8.710;2023-04-15T04:45:26;5.40;95.00
10123;DHT22;5101;49.038;8.710;2023-04-15T04:47:52;5.40;95.10
10123;DHT22;5101;49.038;8.710;2023-04-15T04:50:17;5.40;95.10
10123;DHT22;5101;49.038;8.710;2023-04-15T04:52:43;5.40;95.20
10123;DHT22;5101;49.038;8.710;2023-04-15T04:55:08;5.40;95.20
10123;DHT22;5101;49.038;8.710;2023-04-15T04:57:34;5.60;95.30
10123;DHT22;5101;49.038;8.710;2023-04-15T05:00:05;5.40;95.30
10123;DHT22;5101;49.038;8.710;2023-04-15T05:02:30;5.50;95.40
10123;DHT22;5101;49.038;8.710;2023-04-15T05:04:56;5.40;95.30
10123;DHT22;5101;49.038;8.710;2023-04-15T05:07:22;5.40;95.30
10123;DHT22;5101;49.038;8.710;2023-04-15T05:09:47;5.40;95.30
10123;DHT22;5101;49.038;8.710;2023-04-15T05:12:13;5.40;95.30
10123;DHT22;5101;49.038;8.710;2023-04-15T05:14:40;5.40;95.20
10123;DHT22;5101;49.038;8.710;2023-04-15T05:17:06;5.40;95.30
10123;DHT22;5101;49.038;8.710;2023-04-15T05:19:32;5.40;95.40
10123;DHT22;5101;49.038;8.710;2023-04-15T05:21:57;5.40;95.40
10123;DHT22;5101;49.038;8.710;2023-04-15T05:24:23;5.40;95.70
10123;DHT22;5101;49.038;8.710;2023-04-15T05:26:48;5.50;95.50
10123;DHT22;5101;49.038;8.710;2023-04-15T05:29:14;5.50;95.40
10123;DHT22;5101;49.038;8.710;2023-04-15T05:31:39;5.40;95.40
10123;DHT22;5101;49.038;8.710;2023-04-15T05:34:05;5.50;95.50
10123;DHT22;5101;49.038;8.710;2023-04-15T05:36:31;5.50;95.60
10123;DHT22;5101;49.038;8.710;2023-04-15T05:38:57;5.50;95.70
10123;DHT22;5101;49.038;8.710;2023-04-15T05:41:22;5.50;96.00
10123;DHT22;5101;49.038;8.710;2023-04-15T05:43:48;5.70;96.60
10123;DHT22;5101;49.038;8.710;2023-04-15T05:46:13;5.60;96.40
10123;DHT22;5101;49.038;8.710;2023-04-15T05:48:39;5.70;96.40
10123;DHT22;5101;49.038;8.710;2023-04-15T05:51:05;5.70;96.40
10123;DHT22;5101;49.038;8.710;2023-04-15T05:53:30;5.70;96.40
10123;DHT22;5101;49.038;8.710;2023-04-15T05:55:56;5.70;96.40
10123;DHT22;5101;49.038;8.710;2023-04-15T05:58:22;5.80;96.70
10123;DHT22;5101;49.038;8.710;2023-04-15T06:00:47;5.90;97.00
10123;DHT22;5101;49.038;8.710;2023-04-15T06:03:13;5.90;97.20
10123;DHT22;5101;49.038;8.710;2023-04-15T06:05:38;6.20;97.50
10123;DHT22;5101;49.038;8.710;2023-04-15T06:08:05;6.30;97.50
10123;DHT22;5101;49.038;8.710;2023-04-15T06:10:30;6.20;97.40
10123;DHT22;5101;49.038;8.710;2023-04-15T06:13:01;6.30;97.10
10123;DHT22;5101;49.038;8.710;2023-04-15T06:15:27;6.50;96.90
10123;DHT22;5101;49.038;8.710;2023-04-15T06:17:52;6.60;96.80
10123;DHT22;5101;49.038;8.710;2023-04-15T06:20:18;6.80;96.90
10123;DHT22;5101;49.038;8.710;2023-04-15T06:22:43;6.90;96.90
10123;DHT22;5101;49.038;8.710;2023-04-15T06:25:09;7.10;96.80
10123;DHT22;5101;49.038;8.710;2023-04-15T06:27:35;7.30;96.70
10123;DHT22;5101;49.038;8.710;2023-04-15T06:30:00;7.50;96.40
10123;DHT22;5101;49.038;8.710;2023-04-15T06:32:26;7.70;96.20
10123;DHT22;5101;49.038;8.710;2023-04-15T06:34:51;7.90;95.80
10123;DHT22;5101;49.038;8.710;2023-04-15T06:37:17;8.20;95.40
10123;DHT22;5101;49.038;8.710;2023-04-15T06:39:42;8.60;95.00
10123;DHT22;5101;49.038;8.710;2023-04-15T06:42:10;8.80;94.40
10123;DHT22;5101;49.038;8.710;2023-04-15T06:44:35;9.20;93.80
10123;DHT22;5101;49.038;8.710;2023-04-15T06:47:01;9.50;93.00
10123;DHT22;5101;49.038;8.710;2023-04-15T06:49:27;9.80;92.00
10123;DHT22;5101;49.038;8.710;2023-04-15T06:51:52;10.10;90.60
10123;DHT22;5101;49.038;8.710;2023-04-15T06:54:18;10.20;90.00
10123;DHT22;5101;49.038;8.710;2023-04-15T06:56:44;10.40;88.70
10123;DHT22;5101;49.038;8.710;2023-04-15T06:59:09;10.60;87.30
10123;DHT22;5101;49.038;8.710;2023-04-15T07:01:35;10.80;86.20
10123;DHT22;5101;49.038;8.710;2023-04-15T07:04:00;10.90;85.10
10123;DHT22;5101;49.038;8.710;2023-04-15T07:06:26;11.00;84.40
10123;DHT22;5101;49.038;8.710;2023-04-15T07:08:52;11.20;83.70
10123;DHT22;5101;49.038;8.710;2023-04-15T07:11:19;11.30;83.50
10123;DHT22;5101;49.038;8.710;2023-04-15T07:13:45;11.50;83.40
10123;DHT22;5101;49.038;8.710;2023-04-15T07:16:10;11.70;83.00
10123;DHT22;5101;49.038;8.710;2023-04-15T07:18:36;11.90;82.10
10123;DHT22;5101;49.038;8.710;2023-04-15T07:21:02;12.30;81.60
10123;DHT22;5101;49.038;8.710;2023-04-15T07:23:27;12.60;81.00
10123;DHT22;5101;49.038;8.710;2023-04-15T07:25:53;13.00;80.20
10123;DHT22;5101;49.038;8.710;2023-04-15T07:28:19;13.40;79.00
10123;DHT22;5101;49.038;8.710;2023-04-15T07:30:45;13.70;77.00
10123;DHT22;5101;49.038;8.710;2023-04-15T07:33:10;14.00;74.50
10123;DHT22;5101;49.038;8.710;2023-04-15T07:35:36;14.30;73.00
10123;DHT22;5101;49.038;8.710;2023-04-15T07:38:02;14.70;71.70
10123;DHT22;5101;49.038;8.710;2023-04-15T07:40:27;14.90;70.10
10123;DHT22;5101;49.038;8.710;2023-04-15T07:42:54;15.20;68.60
10123;DHT22;5101;49.038;8.710;2023-04-15T07:45:20;15.50;67.10
10123;DHT22;5101;49.038;8.710;2023-04-15T07:47:46;15.60;65.40
10123;DHT22;5101;49.038;8.710;2023-04-15T07:50:11;15.80;64.50
10123;DHT22;5101;49.038;8.710;2023-04-15T07:52:37;16.00;63.20
10123;DHT22;5101;49.038;8.710;2023-04-15T07:55:06;16.20;61.60
10123;DHT22;5101;49.038;8.710;2023-04-15T07:57:34;16.40;60.10
10123;DHT22;5101;49.038;8.710;2023-04-15T08:00:01;16.50;58.90
10123;DHT22;5101;49.038;8.710;2023-04-15T08:02:28;16.70;57.00
10123;DHT22;5101;49.038;8.710;2023-04-15T08:04:53;16.70;55.00
10123;DHT22;5101;49.038;8.710;2023-04-15T08:07:19;16.90;54.10
10123;DHT22;5101;49.038;8.710;2023-04-15T08:09:45;17.00;53.70
10123;DHT22;5101;49.038;8.710;2023-04-15T08:12:11;17.20;52.90
10123;DHT22;5101;49.038;8.710;2023-04-15T08:14:38;17.30;52.50
10123;DHT22;5101;49.038;8.710;2023-04-15T08:17:04;17.40;52.40
10123;DHT22;5101;49.038;8.710;2023-04-15T08:19:30;17.50;52.20
10123;DHT22;5101;49.038;8.710;2023-04-15T08:21:55;17.60;52.10
10123;DHT22;5101;49.038;8.710;2023-04-15T08:24:22;17.60;51.50
10123;DHT22;5101;49.038;8.710;2023-04-15T08:26:47;17.70;51.40
10123;DHT22;5101;49.038;8.710;2023-04-15T08:29:13;17.90;51.40
10123;DHT22;5101;49.038;8.710;2023-04-15T08:31:38;18.20;51.40
10123;DHT22;5101;49.038;8.710;2023-04-15T08:34:04;18.30;51.00
10123;DHT22;5101;49.038;8.710;2023-04-15T08:36:29;18.70;50.40
10123;DHT22;5101;49.038;8.710;2023-04-15T08:38:56;18.80;49.60
10123;DHT22;5101;49.038;8.710;2023-04-15T08:41:24;18.90;48.30
10123;DHT22;5101;49.038;8.710;2023-04-15T08:46:20;19.10;47.40
10123;DHT22;5101;49.038;8.710;2023-04-15T08:48:47;19.10;47.00
10123;DHT22;5101;49.038;8.710;2023-04-15T08:51:13;19.30;46.50
10123;DHT22;5101;49.038;8.710;2023-04-15T08:53:42;19.40;46.30
10123;DHT22;5101;49.038;8.710;2023-04-15T08:56:08;19.50;45.60
10123;DHT22;5101;49.038;8.710;2023-04-15T08:58:35;19.60;45.40
10123;DHT22;5101;49.038;8.710;2023-04-15T09:01:01;19.60;45.10
10123;DHT22;5101;49.038;8.710;2023-04-15T09:03:27;19.80;44.70
10123;DHT22;5101;49.038;8.710;2023-04-15T09:05:53;19.90;44.40
10123;DHT22;5101;49.038;8.710;2023-04-15T09:08:19;20.00;44.10
10123;DHT22;5101;49.038;8.710;2023-04-15T09:10:44;19.90;44.30
10123;DHT22;5101;49.038;8.710;2023-04-15T09:13:10;20.00;44.50
10123;DHT22;5101;49.038;8.710;2023-04-15T09:15:37;20.20;44.70
10123;DHT22;5101;49.038;8.710;2023-04-15T09:18:03;20.40;45.00
10123;DHT22;5101;49.038;8.710;2023-04-15T09:20:28;20.50;45.30
10123;DHT22;5101;49.038;8.710;2023-04-15T09:22:54;20.70;45.50
10123;DHT22;5101;49.038;8.710;2023-04-15T09:27:57;20.90;43.30
10123;DHT22;5101;49.038;8.710;2023-04-15T09:30:23;20.70;43.50
10123;DHT22;5101;49.038;8.710;2023-04-15T09:35:18;20.90;43.20
10123;DHT22;5101;49.038;8.710;2023-04-15T09:37:44;21.00;43.00
10123;DHT22;5101;49.038;8.710;2023-04-15T09:40:10;21.20;43.00
10123;DHT22;5101;49.038;8.710;2023-04-15T09:42:36;21.50;43.00
10123;DHT22;5101;49.038;8.710;2023-04-15T09:45:10;21.70;42.80
10123;DHT22;5101;49.038;8.710;2023-04-15T09:47:36;21.60;41.50
10123;DHT22;5101;49.038;8.710;2023-04-15T09:50:02;21.30;42.00
10123;DHT22;5101;49.038;8.710;2023-04-15T09:52:28;21.10;41.70
10123;DHT22;5101;49.038;8.710;2023-04-15T09:54:56;21.00;41.90
10123;DHT22;5101;49.038;8.710;2023-04-15T09:57:22;20.90;42.10
10123;DHT22;5101;49.038;8.710;2023-04-15T09:59:49;20.80;41.90
10123;DHT22;5101;49.038;8.710;2023-04-15T10:02:15;20.80;41.60
10123;DHT22;5101;49.038;8.710;2023-04-15T10:04:43;20.60;42.60
10123;DHT22;5101;49.038;8.710;2023-04-15T10:07:10;20.70;43.90
10123;DHT22;5101;49.038;8.710;2023-04-15T10:09:38;20.80;44.70
10123;DHT22;5101;49.038;8.710;2023-04-15T10:12:04;20.70;44.40
10123;DHT22;5101;49.038;8.710;2023-04-15T10:14:34;20.60;44.40
10123;DHT22;5101;49.038;8.710;2023-04-15T10:17:04;20.50;43.70
10123;DHT22;5101;49.038;8.710;2023-04-15T10:19:35;20.50;45.00
10123;DHT22;5101;49.038;8.710;2023-04-15T10:22:01;20.30;45.70
10123;DHT22;5101;49.038;8.710;2023-04-15T10:24:27;20.30;45.30
10123;DHT22;5101;49.038;8.710;2023-04-15T10:26:53;20.30;45.90
10123;DHT22;5101;49.038;8.710;2023-04-15T10:29:19;20.20;47.00
10123;DHT22;5101;49.038;8.710;2023-04-15T10:31:45;20.10;45.90
10123;DHT22;5101;49.038;8.710;2023-04-15T10:34:12;20.00;46.40
10123;DHT22;5101;49.038;8.710;2023-04-15T10:36:38;19.90;47.20
10123;DHT22;5101;49.038;8.710;2023-04-15T10:42:12;19.80;47.20
10123;DHT22;5101;49.038;8.710;2023-04-15T10:44:40;19.70;47.00
10123;DHT22;5101;49.038;8.710;2023-04-15T10:47:17;19.60;47.00
10123;DHT22;5101;49.038;8.710;2023-04-15T10:49:51;19.60;46.40
10123;DHT22;5101;49.038;8.710;2023-04-15T10:52:21;19.60;45.90
10123;DHT22;5101;49.038;8.710;2023-04-15T10:54:47;19.70;45.80
10123;DHT22;5101;49.038;8.710;2023-04-15T10:57:21;19.60;45.40
10123;DHT22;5101;49.038;8.710;2023-04-15T11:00:08;19.60;45.90
10123;DHT22;5101;49.038;8.710;2023-04-15T11:02:56;19.50;46.10
10123;DHT22;5101;49.038;8.710;2023-04-15T11:08:03;19.10;43.70
10123;DHT22;5101;49.038;8.710;2023-04-15T11:13:03;19.00;43.30
10123;DHT22;5101;49.038;8.710;2023-04-15T11:18:19;19.00;42.60
10123;DHT22;5101;49.038;8.710;2023-04-15T11:20:47;18.80;41.50
10123;DHT22;5101;49.038;8.710;2023-04-15T11:23:16;18.90;41.20
10123;DHT22;5101;49.038;8.710;2023-04-15T11:25:42;18.90;41.20
10123;DHT22;5101;49.038;8.710;2023-04-15T11:28:08;18.90;41.10
10123;DHT22;5101;49.038;8.710;2023-04-15T11:30:35;18.90;40.60
10123;DHT22;5101;49.038;8.710;2023-04-15T11:33:06;18.80;39.70
10123;DHT22;5101;49.038;8.710;2023-04-15T11:35:33;18.90;39.30
10123;DHT22;5101;49.038;8.710;2023-04-15T11:38:02;19.00;39.40
10123;DHT22;5101;49.038;8.710;2023-04-15T11:40:29;18.90;39.40
10123;DHT22;5101;49.038;8.710;2023-04-15T11:43:11;18.90;39.60
10123;DHT22;5101;49.038;8.710;2023-04-15T11:45:48;19.00;39.30
10123;DHT22;5101;49.038;8.710;2023-04-15T11:48:14;19.20;39.40
10123;DHT22;5101;49.038;8.710;2023-04-15T11:50:40;19.20;39.00
10123;DHT22;5101;49.038;8.710;2023-04-15T11:53:08;19.30;38.20
10123;DHT22;5101;49.038;8.710;2023-04-15T11:55:45;19.30;38.20
10123;DHT22;5101;49.038;8.710;2023-04-15T11:58:15;19.50;38.70
10123;DHT22;5101;49.038;8.710;2023-04-15T12:00:48;19.70;38.90
10123;DHT22;5101;49.038;8.710;2023-04-15T12:09:29;20.20;38.60
10123;DHT22;5101;49.038;8.710;2023-04-15T12:11:49;20.30;37.80
10123;DHT22;5101;49.038;8.710;2023-04-15T12:14:28;20.20;37.40
10123;DHT22;5101;49.038;8.710;2023-04-15T12:17:01;20.00;37.30
10123;DHT22;5101;49.038;8.710;2023-04-15T12:19:28;20.10;38.10
10123;DHT22;5101;49.038;8.710;2023-04-15T12:22:04;19.90;37.20
10123;DHT22;5101;49.038;8.710;2023-04-15T12:24:32;19.90;37.20
10123;DHT22;5101;49.038;8.710;2023-04-15T12:27:01;19.80;37.50
10123;DHT22;5101;49.038;8.710;2023-04-15T12:29:29;19.70;37.30
10123;DHT22;5101;49.038;8.710;2023-04-15T12:34:34;19.40;38.40
10123;DHT22;5101;49.038;8.710;2023-04-15T12:37:02;19.40;39.00
10123;DHT22;5101;49.038;8.710;2023-04-15T12:39:30;19.40;39.60
10123;DHT22;5101;49.038;8.710;2023-04-15T12:41:57;19.20;38.80
10123;DHT22;5101;49.038;8.710;2023-04-15T12:44:23;19.00;37.80
10123;DHT22;5101;49.038;8.710;2023-04-15T12:46:50;18.90;37.50
10123;DHT22;5101;49.038;8.710;2023-04-15T12:49:17;18.80;37.00
10123;DHT22;5101;49.038;8.710;2023-04-15T12:51:46;18.60;35.40
10123;DHT22;5101;49.038;8.710;2023-04-15T12:54:12;18.30;34.90
10123;DHT22;5101;49.038;8.710;2023-04-15T12:56:38;18.20;35.40
10123;DHT22;5101;49.038;8.710;2023-04-15T12:59:03;18.10;35.20
10123;DHT22;5101;49.038;8.710;2023-04-15T13:01:29;18.00;35.30
10123;DHT22;5101;49.038;8.710;2023-04-15T13:03:55;17.90;35.10
10123;DHT22;5101;49.038;8.710;2023-04-15T13:06:20;17.90;35.20
10123;DHT22;5101;49.038;8.710;2023-04-15T13:08:46;17.90;35.20
10123;DHT22;5101;49.038;8.710;2023-04-15T13:11:11;17.90;35.20
10123;DHT22;5101;49.038;8.710;2023-04-15T13:13:37;17.80;35.10
10123;DHT22;5101;49.038;8.710;2023-04-15T13:16:02;17.70;34.80
10123;DHT22;5101;49.038;8.710;2023-04-15T13:18:28;17.50;34.10
10123;DHT22;5101;49.038;8.710;2023-04-15T13:20:55;17.40;34.80
10123;DHT22;5101;49.038;8.710;2023-04-15T13:23:21;17.30;34.30
10123;DHT22;5101;49.038;8.710;2023-04-15T13:25:46;17.40;34.80
10123;DHT22;5101;49.038;8.710;2023-04-15T13:28:12;17.20;34.50
10123;DHT22;5101;49.038;8.710;2023-04-15T13:30:38;17.10;34.80
10123;DHT22;5101;49.038;8.710;2023-04-15T13:33:04;17.00;34.90
10123;DHT22;5101;49.038;8.710;2023-04-15T13:35:31;16.90;34.60
10123;DHT22;5101;49.038;8.710;2023-04-15T13:37:57;16.70;35.00
10123;DHT22;5101;49.038;8.710;2023-04-15T13:40:22;16.60;35.30
10123;DHT22;5101;49.038;8.710;2023-04-15T13:42:48;16.60;35.30
10123;DHT22;5101;49.038;8.710;2023-04-15T13:45:13;16.60;35.70
10123;DHT22;5101;49.038;8.710;2023-04-15T13:47:39;16.60;36.10
10123;DHT22;5101;49.038;8.710;2023-04-15T13:50:05;16.60;36.40
10123;DHT22;5101;49.038;8.710;2023-04-15T13:52:31;16.50;36.70
10123;DHT22;5101;49.038;8.710;2023-04-15T13:54:56;16.50;37.40
10123;DHT22;5101;49.038;8.710;2023-04-15T13:57:22;16.40;37.50
10123;DHT22;5101;49.038;8.710;2023-04-15T13:59:47;16.40;37.80
10123;DHT22;5101;49.038;8.710;2023-04-15T14:02:13;16.30;38.30
10123;DHT22;5101;49.038;8.710;2023-04-15T14:04:38;16.20;38.30
10123;DHT22;5101;49.038;8.710;2023-04-15T14:07:04;16.10;38.50
10123;DHT22;5101;49.038;8.710;2023-04-15T14:09:30;16.00;38.60
10123;DHT22;5101;49.038;8.710;2023-04-15T14:11:55;15.90;38.50
10123;DHT22;5101;49.038;8.710;2023-04-15T14:14:21;15.90;39.00
10123;DHT22;5101;49.038;8.710;2023-04-15T14:16:46;15.90;39.30
10123;DHT22;5101;49.038;8.710;2023-04-15T14:19:13;15.90;39.70
10123;DHT22;5101;49.038;8.710;2023-04-15T14:21:38;15.80;39.90
10123;DHT22;5101;49.038;8.710;2023-04-15T14:24:04;15.70;40.40
10123;DHT22;5101;49.038;8.710;2023-04-15T14:26:30;15.70;40.40
10123;DHT22;5101;49.038;8.710;2023-04-15T14:28:55;15.70;40.60
10123;DHT22;5101;49.038;8.710;2023-04-15T14:31:21;15.60;40.60
10123;DHT22;5101;49.038;8.710;2023-04-15T14:33:46;15.50;40.40
10123;DHT22;5101;49.038;8.710;2023-04-15T14:36:12;15.40;40.80
10123;DHT22;5101;49.038;8.710;2023-04-15T14:38:37;15.40;41.10
10123;DHT22;5101;49.038;8.710;2023-04-15T14:41:05;15.40;41.20
10123;DHT22;5101;49.038;8.710;2023-04-15T14:43:31;15.40;41.30
10123;DHT22;5101;49.038;8.710;2023-04-15T14:45:56;15.40;42.30
10123;DHT22;5101;49.038;8.710;2023-04-15T14:48:22;15.30;41.80
10123;DHT22;5101;49.038;8.710;2023-04-15T14:50:47;15.30;41.60
10123;DHT22;5101;49.038;8.710;2023-04-15T14:53:13;15.20;41.30
10123;DHT22;5101;49.038;8.710;2023-04-15T14:55:38;15.00;40.60
10123;DHT22;5101;49.038;8.710;2023-04-15T14:58:05;14.90;40.10
10123;DHT22;5101;49.038;8.710;2023-04-15T15:00:32;14.80;39.80
10123;DHT22;5101;49.038;8.710;2023-04-15T15:02:58;14.70;39.70
10123;DHT22;5101;49.038;8.710;2023-04-15T15:05:24;14.80;40.50
10123;DHT22;5101;49.038;8.710;2023-04-15T15:07:49;14.90;41.10
10123;DHT22;5101;49.038;8.710;2023-04-15T15:10:15;14.90;41.00
10123;DHT22;5101;49.038;8.710;2023-04-15T15:12:40;14.90;40.80
10123;DHT22;5101;49.038;8.710;2023-04-15T15:15:06;14.90;40.60
10123;DHT22;5101;49.038;8.710;2023-04-15T15:17:32;14.90;40.60
10123;DHT22;5101;49.038;8.710;2023-04-15T15:19:57;14.90;40.60
10123;DHT22;5101;49.038;8.710;2023-04-15T15:22:23;14.80;40.70
10123;DHT22;5101;49.038;8.710;2023-04-15T15:24:50;14.80;40.90
10123;DHT22;5101;49.038;8.710;2023-04-15T15:27:15;14.80;41.20
10123;DHT22;5101;49.038;8.710;2023-04-15T15:29:41;14.80;41.40
10123;DHT22;5101;49.038;8.710;2023-04-15T15:32:06;14.80;41.90
10123;DHT22;5101;49.038;8.710;2023-04-15T15:34:32;14.90;43.50
10123;DHT22;5101;49.038;8.710;2023-04-15T15:36:58;14.90;44.20
10123;DHT22;5101;49.038;8.710;2023-04-15T15:39:24;14.80;44.80
10123;DHT22;5101;49.038;8.710;2023-04-15T15:41:50;14.80;45.90
10123;DHT22;5101;49.038;8.710;2023-04-15T15:44:15;14.70;47.20
10123;DHT22;5101;49.038;8.710;2023-04-15T15:46:41;14.60;48.40
10123;DHT22;5101;49.038;8.710;2023-04-15T15:49:06;14.50;49.90
10123;DHT22;5101;49.038;8.710;2023-04-15T15:51:32;14.40;51.10
10123;DHT22;5101;49.038;8.710;2023-04-15T15:53:58;14.40;52.80
10123;DHT22;5101;49.038;8.710;2023-04-15T15:56:23;14.30;54.20
10123;DHT22;5101;49.038;8.710;2023-04-15T15:58:49;14.20;55.80
10123;DHT22;5101;49.038;8.710;2023-04-15T16:01:14;14.20;58.00
10123;DHT22;5101;49.038;8.710;2023-04-15T16:03:40;14.10;59.70
10123;DHT22;5101;49.038;8.710;2023-04-15T16:06:05;14.00;62.60
10123;DHT22;5101;49.038;8.710;2023-04-15T16:08:31;13.90;65.60
10123;DHT22;5101;49.038;8.710;2023-04-15T16:10:57;13.80;67.50
10123;DHT22;5101;49.038;8.710;2023-04-15T16:13:22;13.80;69.40